Time;durP1;ratioP1;P1;durP2;ratioP2;P2;SDS_P1;SDS_P2;PMS_P1;PMS_P2;Temp;Humidity;BMP_temperature;BMP_pressure;BME280_temperature;BME280_humidity;BME280_pressure;Samples;Min_cycle;Max_cycle;Signal;HPM_P1;HPM_P2
2022/01/04 00:02:04;;;;;;;303.13;53.70;;;7.50;98.80;;;;;;5093061;28;20115;-71
2022/01/04 00:04:30;;;;;;;283.90;50.47;;;7.50;98.80;;;;;;5092932;28;20085;-71
2022/01/04 00:06:57;;;;;;;233.77;48.07;;;7.50;99.00;;;;;;5093007;28;20361;-71
2022/01/04 00:09:23;;;;;;;441.50;84.13;;;7.50;99.00;;;;;;5093177;28;20103;-71
2022/01/04 00:14:18;;;;;;;329.60;84.70;;;7.50;98.70;;;;;;5093177;28;20028;-71
2022/01/04 00:16:44;;;;;;;249.03;63.83;;;7.50;98.70;;;;;;5093212;28;20016;-71
2022/01/04 00:19:11;;;;;;;279.97;57.93;;;7.50;98.60;;;;;;5092790;28;20051;-71
2022/01/04 00:21:37;;;;;;;269.97;53.90;;;7.50;98.70;;;;;;5092776;28;20767;-71
2022/01/04 00:24:04;;;;;;;218.67;51.07;;;7.40;98.60;;;;;;5093042;28;20052;-71
2022/01/04 00:26:30;;;;;;;246.23;53.03;;;7.40;98.70;;;;;;5093189;28;20016;-71
2022/01/04 00:28:56;;;;;;;213.27;53.20;;;7.50;98.60;;;;;;5097072;28;20533;-71
2022/01/04 00:31:21;;;;;;;202.10;52.27;;;7.40;98.60;;;;;;5096703;28;20020;-71
2022/01/04 00:33:47;;;;;;;221.17;66.67;;;7.40;98.60;;;;;;5096667;28;20020;-71
2022/01/04 00:36:13;;;;;;;239.60;57.73;;;7.40;98.50;;;;;;5096790;28;20408;-71
2022/01/04 00:38:39;;;;;;;242.90;57.03;;;7.40;98.40;;;;;;5096733;28;20426;-71
2022/01/04 00:41:04;;;;;;;249.57;61.13;;;7.40;98.40;;;;;;5096376;28;20016;-72
2022/01/04 00:43:30;;;;;;;230.60;56.47;;;7.30;98.50;;;;;;5096543;28;20512;-72
2022/01/04 00:45:56;;;;;;;233.40;58.00;;;7.30;98.60;;;;;;5096710;28;20024;-71
2022/01/04 00:50:47;;;;;;;241.37;61.97;;;7.30;98.50;;;;;;5096288;28;20028;-71
2022/01/04 00:53:13;;;;;;;205.83;58.17;;;7.30;98.50;;;;;;5096248;28;20030;-71
2022/01/04 00:55:39;;;;;;;212.30;58.93;;;7.30;98.50;;;;;;5096400;28;20020;-72
2022/01/04 00:58:05;;;;;;;229.30;57.47;;;7.30;98.50;;;;;;5096378;28;20028;-72
2022/01/04 01:00:32;;;;;;;223.67;59.53;;;7.30;98.50;;;;;;5096542;28;20113;-71
2022/01/04 01:02:58;;;;;;;230.43;61.77;;;7.30;98.50;;;;;;5096280;28;20118;-71
2022/01/04 01:05:26;;;;;;;211.27;58.37;;;7.30;98.50;;;;;;5096347;28;20016;-71
2022/01/04 01:07:53;;;;;;;231.87;60.13;;;7.30;98.50;;;;;;5096352;28;20036;-71
2022/01/04 01:10:41;;;;;;;215.27;58.20;;;7.30;98.50;;;;;;5095963;28;20077;-71
2022/01/04 01:13:07;;;;;;;217.73;59.47;;;7.30;98.40;;;;;;5096331;28;20060;-71
2022/01/04 01:15:34;;;;;;;237.97;65.03;;;7.30;98.50;;;;;;5096118;28;20103;-71
2022/01/04 01:18:00;;;;;;;215.30;61.83;;;7.30;98.30;;;;;;5096021;28;20024;-71
2022/01/04 01:20:25;;;;;;;214.80;66.10;;;7.30;98.30;;;;;;5095630;28;20039;-71
2022/01/04 01:22:51;;;;;;;218.37;65.23;;;7.30;98.00;;;;;;5095776;28;20361;-71
2022/01/04 01:25:17;;;;;;;202.30;61.17;;;7.20;98.00;;;;;;5095812;28;20043;-71
2022/01/04 01:27:43;;;;;;;196.97;61.27;;;7.20;98.10;;;;;;5095908;28;20023;-71
2022/01/04 01:30:10;;;;;;;209.93;62.27;;;7.20;98.00;;;;;;5095776;28;20026;-71
2022/01/04 01:32:36;;;;;;;208.33;61.47;;;7.20;98.00;;;;;;5095680;28;20069;-71
2022/01/04 01:35:03;;;;;;;201.83;62.83;;;7.20;98.10;;;;;;5095616;28;20016;-71
2022/01/04 01:37:29;;;;;;;206.27;61.87;;;7.20;98.00;;;;;;5095510;28;20024;-71
2022/01/04 01:39:54;;;;;;;202.63;64.47;;;7.20;97.90;;;;;;5094531;28;20035;-71
2022/01/04 01:42:20;;;;;;;186.00;61.63;;;7.10;97.90;;;;;;5095539;28;20040;-71
2022/01/04 01:44:46;;;;;;;181.50;60.30;;;7.10;98.00;;;;;;5095346;28;20125;-71
2022/01/04 01:47:11;;;;;;;185.23;63.90;;;7.10;97.90;;;;;;5095435;28;20099;-71
2022/01/04 01:49:37;;;;;;;165.47;57.57;;;7.20;98.00;;;;;;5095272;28;20024;-71
2022/01/04 01:52:03;;;;;;;163.00;57.00;;;7.20;97.90;;;;;;5095279;28;20042;-71
2022/01/04 01:54:29;;;;;;;167.17;58.07;;;7.10;97.60;;;;;;5095212;28;20020;-71
2022/01/04 01:56:54;;;;;;;144.83;55.27;;;7.10;97.80;;;;;;5095299;28;20030;-71
2022/01/04 01:59:20;;;;;;;160.30;56.17;;;7.10;97.80;;;;;;5092306;28;20028;-71
2022/01/04 02:01:46;;;;;;;161.33;57.57;;;7.10;97.70;;;;;;5092352;28;20040;-71
2022/01/04 02:04:12;;;;;;;160.57;55.73;;;7.10;97.60;;;;;;5092771;28;20016;-71
2022/01/04 02:06:38;;;;;;;155.67;55.77;;;7.10;97.70;;;;;;5094612;28;20391;-71
2022/01/04 02:09:04;;;;;;;151.33;56.57;;;7.10;97.80;;;;;;5095067;28;20028;-71
2022/01/04 02:11:31;;;;;;;142.33;53.57;;;7.10;97.90;;;;;;5094850;28;20027;-71
2022/01/04 02:13:58;;;;;;;143.73;53.40;;;7.10;97.90;;;;;;5094466;28;20472;-71
2022/01/04 02:16:29;;;;;;;136.23;52.80;;;7.10;97.80;;;;;;5094755;28;20074;-71
2022/01/04 02:19:07;;;;;;;132.87;52.47;;;7.10;97.80;;;;;;5094551;28;20024;-71
2022/01/04 02:21:34;;;;;;;133.27;53.27;;;7.20;97.80;;;;;;5054157;28;20083;-71
2022/01/04 02:24:01;;;;;;;127.70;52.33;;;7.20;97.70;;;;;;5054159;28;20032;-71
2022/01/04 02:26:30;;;;;;;125.63;48.83;;;7.20;97.70;;;;;;5054486;28;20029;-71
2022/01/04 02:28:56;;;;;;;118.23;47.90;;;7.20;97.70;;;;;;5054041;28;20249;-71
2022/01/04 02:31:22;;;;;;;121.30;49.43;;;7.20;97.90;;;;;;5054028;28;20025;-70
2022/01/04 02:33:47;;;;;;;130.87;49.57;;;7.20;97.50;;;;;;5053994;28;20070;-71
2022/01/04 02:36:13;;;;;;;115.63;47.17;;;7.30;97.50;;;;;;5053699;28;20027;-71
2022/01/04 02:38:39;;;;;;;115.97;47.40;;;7.30;97.50;;;;;;5054085;28;20052;-71
2022/01/04 02:41:05;;;;;;;117.97;46.33;;;7.20;97.40;;;;;;5054000;28;20024;-71
2022/01/04 02:43:30;;;;;;;112.53;44.87;;;7.30;97.40;;;;;;5053626;28;20029;-71
2022/01/04 02:45:56;;;;;;;115.10;48.30;;;7.30;97.40;;;;;;5054089;28;20025;-71
2022/01/04 02:48:22;;;;;;;114.20;47.20;;;7.30;97.40;;;;;;5053754;28;20086;-71
2022/01/04 02:50:50;;;;;;;114.63;46.70;;;7.30;97.40;;;;;;5053579;28;20020;-71
2022/01/04 02:53:17;;;;;;;110.47;45.97;;;7.30;97.40;;;;;;5053618;28;20025;-71
2022/01/04 02:55:42;;;;;;;108.07;45.13;;;7.30;97.40;;;;;;5053713;28;20413;-71
2022/01/04 02:58:08;;;;;;;116.67;47.13;;;7.30;97.40;;;;;;5053894;28;20021;-71
2022/01/04 03:00:34;;;;;;;110.60;45.17;;;7.30;97.50;;;;;;5053671;28;20104;-71
2022/01/04 03:03:00;;;;;;;111.47;46.53;;;7.30;97.50;;;;;;5053768;28;20499;-71
2022/01/04 03:05:26;;;;;;;108.33;46.47;;;7.30;97.30;;;;;;5053658;28;20025;-71
2022/01/04 03:07:51;;;;;;;112.33;45.30;;;7.30;97.40;;;;;;5053618;28;20044;-71
2022/01/04 03:10:17;;;;;;;108.30;44.83;;;7.30;97.40;;;;;;5053483;28;20048;-71
2022/01/04 03:12:44;;;;;;;104.40;44.43;;;7.30;97.40;;;;;;5053476;28;20036;-71
2022/01/04 03:15:11;;;;;;;115.43;46.43;;;7.30;97.30;;;;;;5053286;28;20092;-71
2022/01/04 03:17:37;;;;;;;113.50;46.77;;;7.30;97.30;;;;;;5053602;28;20029;-71
2022/01/04 03:20:03;;;;;;;109.27;46.40;;;7.20;97.20;;;;;;5070086;28;20036;-71
2022/01/04 03:22:29;;;;;;;108.27;45.40;;;7.20;97.30;;;;;;5093314;28;20131;-71
2022/01/04 03:24:55;;;;;;;116.43;47.03;;;7.20;97.30;;;;;;5093505;28;20095;-71
2022/01/04 03:27:20;;;;;;;107.70;45.67;;;7.20;97.40;;;;;;5093772;28;20058;-71
2022/01/04 03:29:46;;;;;;;111.13;47.23;;;7.20;97.50;;;;;;5093518;28;20028;-71
2022/01/04 03:32:12;;;;;;;112.17;48.63;;;7.30;97.40;;;;;;5093464;28;20459;-71
2022/01/04 03:34:37;;;;;;;107.77;47.40;;;7.30;97.40;;;;;;5093536;28;20072;-71
2022/01/04 03:37:03;;;;;;;113.20;48.20;;;7.20;97.20;;;;;;5093643;28;20024;-71
2022/01/04 03:39:29;;;;;;;121.60;48.00;;;7.20;97.20;;;;;;5093085;28;20020;-71
2022/01/04 03:41:55;;;;;;;108.03;48.03;;;7.20;97.30;;;;;;5093278;28;20025;-71
2022/01/04 03:44:21;;;;;;;107.73;47.20;;;7.20;97.30;;;;;;5093137;28;20384;-71
2022/01/04 03:46:52;;;;;;;110.77;46.83;;;7.20;97.20;;;;;;5092939;28;20375;-71
2022/01/04 03:49:18;;;;;;;100.23;45.57;;;7.20;97.10;;;;;;5093004;28;20028;-71
2022/01/04 03:51:44;;;;;;;102.80;45.97;;;7.20;97.10;;;;;;5093062;28;20379;-71
2022/01/04 03:54:10;;;;;;;101.77;44.37;;;7.20;97.20;;;;;;5093028;28;20028;-70
2022/01/04 03:56:36;;;;;;;106.93;45.63;;;7.20;97.20;;;;;;5093407;28;20401;-71
2022/01/04 03:59:03;;;;;;;106.07;45.23;;;7.20;97.10;;;;;;5093289;28;20114;-71
2022/01/04 04:01:29;;;;;;;104.13;45.97;;;7.20;97.20;;;;;;5093489;28;20039;-71
2022/01/04 04:03:54;;;;;;;97.70;44.10;;;7.20;97.30;;;;;;5097150;28;20103;-71
2022/01/04 04:06:20;;;;;;;102.20;44.90;;;7.20;97.30;;;;;;5097385;28;20024;-71
2022/01/04 04:08:46;;;;;;;99.53;42.97;;;7.20;97.40;;;;;;5097486;28;20170;-71
2022/01/04 04:11:12;;;;;;;100.80;44.63;;;7.20;97.40;;;;;;5097324;28;20420;-71
2022/01/04 04:13:37;;;;;;;104.87;43.80;;;7.20;97.40;;;;;;5097177;28;20030;-71
2022/01/04 04:16:03;;;;;;;97.70;43.60;;;7.20;97.40;;;;;;5096958;28;20040;-71
2022/01/04 04:18:30;;;;;;;105.47;44.93;;;7.20;97.40;;;;;;5097324;28;20056;-71
2022/01/04 04:20:55;;;;;;;87.00;41.77;;;7.20;97.30;;;;;;5096957;28;20048;-71
2022/01/04 04:23:21;;;;;;;93.67;42.03;;;7.20;97.30;;;;;;5096925;28;20096;-71
2022/01/04 04:25:47;;;;;;;99.60;44.40;;;7.20;97.20;;;;;;5096986;28;20028;-71
2022/01/04 04:28:13;;;;;;;97.50;43.73;;;7.20;97.20;;;;;;5096796;28;20533;-72
2022/01/04 04:30:38;;;;;;;93.67;43.53;;;7.30;97.20;;;;;;5096824;28;20028;-71
2022/01/04 04:33:04;;;;;;;107.00;45.43;;;7.30;97.10;;;;;;5096891;28;20039;-71
2022/01/04 04:35:31;;;;;;;102.07;44.90;;;7.30;97.10;;;;;;5096878;28;20024;-71
2022/01/04 04:38:01;;;;;;;107.90;45.70;;;7.20;97.00;;;;;;5096581;28;20032;-71
2022/01/04 04:40:27;;;;;;;104.90;44.80;;;7.30;97.10;;;;;;5096520;28;20458;-71
2022/01/04 04:42:53;;;;;;;107.27;46.63;;;7.20;97.10;;;;;;5096663;28;20538;-71
2022/01/04 04:45:19;;;;;;;104.87;44.23;;;7.20;97.10;;;;;;5096539;28;20024;-71
2022/01/04 04:47:45;;;;;;;100.40;45.60;;;7.20;97.10;;;;;;5096788;28;20448;-71
2022/01/04 04:50:11;;;;;;;101.00;44.13;;;7.20;97.20;;;;;;5095384;28;20025;-71
2022/01/04 04:52:37;;;;;;;98.90;44.60;;;7.20;97.30;;;;;;5096328;28;20020;-70
2022/01/04 04:55:04;;;;;;;99.70;45.27;;;7.20;97.30;;;;;;5096436;28;20051;-71
2022/01/04 04:57:30;;;;;;;103.30;45.47;;;7.20;97.30;;;;;;5096498;28;20024;-71
2022/01/04 04:59:56;;;;;;;101.57;43.80;;;7.30;97.20;;;;;;5096277;28;20016;-71
2022/01/04 05:02:22;;;;;;;95.17;44.80;;;7.20;97.10;;;;;;5096154;28;20032;-71
2022/01/04 05:04:47;;;;;;;101.83;45.97;;;7.20;97.10;;;;;;5096215;28;20020;-71
2022/01/04 05:07:13;;;;;;;100.63;44.17;;;7.20;97.10;;;;;;5096330;28;20490;-71
2022/01/04 05:09:39;;;;;;;105.83;44.73;;;7.20;97.10;;;;;;5096000;28;20016;-71
2022/01/04 05:12:06;;;;;;;108.30;44.27;;;7.20;97.10;;;;;;5096050;28;20024;-72
2022/01/04 05:14:32;;;;;;;95.03;43.67;;;7.20;97.10;;;;;;5096031;28;20028;-71
2022/01/04 05:16:57;;;;;;;102.30;45.23;;;7.20;97.10;;;;;;5096009;28;20418;-72
2022/01/04 05:19:23;;;;;;;102.00;44.77;;;7.20;97.10;;;;;;5095849;28;20040;-71
2022/01/04 05:21:49;;;;;;;103.43;45.07;;;7.20;97.10;;;;;;5096018;28;20383;-71
2022/01/04 05:24:15;;;;;;;106.40;46.83;;;7.20;97.10;;;;;;5095517;28;20641;-71
2022/01/04 05:26:40;;;;;;;100.57;45.00;;;7.20;97.10;;;;;;5095766;28;20028;-71
2022/01/04 05:29:06;;;;;;;95.23;43.07;;;7.20;97.10;;;;;;5095672;28;20035;-71
2022/01/04 05:31:32;;;;;;;100.43;43.73;;;7.20;97.10;;;;;;5096018;28;20099;-71
2022/01/04 05:33:57;;;;;;;96.67;40.83;;;7.20;97.20;;;;;;5095552;28;20031;-71
2022/01/04 05:36:23;;;;;;;93.30;42.67;;;7.20;97.10;;;;;;5095745;28;20404;-71
2022/01/04 05:38:49;;;;;;;93.33;42.50;;;7.20;97.10;;;;;;5095565;28;20099;-71
2022/01/04 05:41:15;;;;;;;86.53;39.97;;;7.20;97.10;;;;;;5095590;28;20430;-71
2022/01/04 05:43:41;;;;;;;96.37;44.40;;;7.20;97.20;;;;;;5095074;28;20036;-71
2022/01/04 05:46:07;;;;;;;94.33;42.33;;;7.20;97.20;;;;;;5095249;28;20071;-71
2022/01/04 05:48:32;;;;;;;94.23;42.87;;;7.20;97.20;;;;;;5095336;28;20085;-72
2022/01/04 05:50:58;;;;;;;107.43;44.23;;;7.20;97.30;;;;;;5095215;28;20023;-71
2022/01/04 05:53:24;;;;;;;91.80;43.23;;;7.20;97.40;;;;;;5094849;28;20027;-71
2022/01/04 05:55:50;;;;;;;91.40;42.87;;;7.20;97.30;;;;;;5095348;28;20369;-71
2022/01/04 05:58:16;;;;;;;88.63;41.87;;;7.20;97.20;;;;;;5095403;28;20027;-71
2022/01/04 06:00:42;;;;;;;95.17;42.50;;;7.30;97.10;;;;;;5095311;28;20020;-71
2022/01/04 06:03:08;;;;;;;89.03;43.87;;;7.30;97.00;;;;;;5095105;28;20115;-71
2022/01/04 06:05:33;;;;;;;94.93;42.37;;;7.20;97.00;;;;;;5095080;28;20541;-71
2022/01/04 06:07:59;;;;;;;92.53;41.30;;;7.20;97.00;;;;;;5095103;28;20028;-71
2022/01/04 06:10:25;;;;;;;97.90;44.60;;;7.20;97.00;;;;;;5094549;28;20074;-70
2022/01/04 06:15:17;;;;;;;88.13;41.23;;;7.20;97.10;;;;;;5094978;28;20113;-71
2022/01/04 06:17:49;;;;;;;93.43;40.37;;;7.20;97.10;;;;;;5094871;28;20111;-71
2022/01/04 06:20:21;;;;;;;93.40;43.15;;;7.20;97.20;;;;;;5094435;28;20044;-71
2022/01/04 06:22:47;;;;;;;89.13;42.33;;;7.20;97.10;;;;;;5094650;28;20036;-71
2022/01/04 06:25:16;;;;;;;92.40;43.27;;;7.20;97.20;;;;;;5094066;28;20085;-71
2022/01/04 06:27:43;;;;;;;92.27;43.93;;;7.20;97.10;;;;;;5094460;28;20030;-71
2022/01/04 06:30:10;;;;;;;93.30;44.03;;;7.20;97.10;;;;;;5094566;28;20027;-71
2022/01/04 06:32:38;;;;;;;93.07;43.30;;;7.20;97.10;;;;;;5094464;28;20016;-71
2022/01/04 06:35:05;;;;;;;97.67;42.57;;;7.20;97.10;;;;;;5094345;28;20443;-71
2022/01/04 06:37:32;;;;;;;99.87;42.70;;;7.20;97.10;;;;;;5094197;28;20103;-71
2022/01/04 06:39:58;;;;;;;102.47;43.53;;;7.20;97.10;;;;;;5094362;28;20536;-72
2022/01/04 06:42:23;;;;;;;102.27;44.73;;;7.20;97.10;;;;;;5094193;28;20032;-71
2022/01/04 06:44:49;;;;;;;98.60;45.43;;;7.20;97.10;;;;;;5092802;28;20384;-71
2022/01/04 06:47:15;;;;;;;96.67;45.40;;;7.20;97.10;;;;;;5094171;28;20024;-71
2022/01/04 06:49:40;;;;;;;95.70;42.63;;;7.20;97.10;;;;;;5094092;28;20028;-72
2022/01/04 06:52:06;;;;;;;90.37;44.03;;;7.20;97.10;;;;;;5092668;28;20020;-72
2022/01/04 06:54:32;;;;;;;97.67;44.57;;;7.20;97.10;;;;;;5094255;28;20112;-71
2022/01/04 06:56:58;;;;;;;100.83;43.90;;;7.10;97.40;;;;;;5092940;28;20032;-72
2022/01/04 06:59:23;;;;;;;98.67;43.50;;;7.20;97.10;;;;;;5093970;28;20020;-71
2022/01/04 07:01:49;;;;;;;95.30;42.67;;;7.20;97.10;;;;;;5094143;28;20028;-71
2022/01/04 07:04:15;;;;;;;97.07;44.20;;;7.20;97.10;;;;;;5093818;28;20135;-72
2022/01/04 07:06:41;;;;;;;102.70;42.20;;;7.20;97.10;;;;;;5093952;28;20032;-71
2022/01/04 07:09:08;;;;;;;92.10;42.43;;;7.20;97.10;;;;;;5093904;28;20032;-71
2022/01/04 07:11:34;;;;;;;102.80;46.00;;;7.20;97.10;;;;;;5093721;28;20028;-71
2022/01/04 07:14:01;;;;;;;88.47;40.93;;;7.20;97.10;;;;;;5093787;28;20077;-71
2022/01/04 07:16:26;;;;;;;101.27;43.60;;;7.20;97.10;;;;;;5093596;28;20039;-71
2022/01/04 07:18:53;;;;;;;91.43;44.40;;;7.10;97.10;;;;;;5093817;28;20036;-71
2022/01/04 07:21:19;;;;;;;95.27;43.30;;;7.20;97.20;;;;;;5093527;28;20541;-71
2022/01/04 07:23:46;;;;;;;96.27;45.60;;;7.20;97.10;;;;;;5093611;28;20137;-71
2022/01/04 07:26:14;;;;;;;105.83;45.60;;;7.20;97.20;;;;;;5093364;28;20028;-70
2022/01/04 07:28:45;;;;;;;89.80;41.53;;;7.20;97.10;;;;;;5093681;28;20027;-71
2022/01/04 07:31:11;;;;;;;106.57;45.60;;;7.20;97.20;;;;;;5091083;28;20032;-70
2022/01/04 07:33:38;;;;;;;97.60;44.00;;;7.20;97.20;;;;;;5090991;28;20107;-70
2022/01/04 07:36:06;;;;;;;97.67;44.23;;;7.20;97.20;;;;;;5090530;28;20032;-72
2022/01/04 07:38:33;;;;;;;110.47;48.03;;;7.20;97.20;;;;;;5092814;28;20483;-70
2022/01/04 07:40:58;;;;;;;106.97;46.10;;;7.20;97.20;;;;;;5093061;28;20020;-70
2022/01/04 07:43:24;;;;;;;101.17;43.87;;;7.20;97.20;;;;;;5093295;28;20032;-70
2022/01/04 07:45:50;;;;;;;96.73;44.13;;;7.20;97.10;;;;;;5093031;28;20464;-69
2022/01/04 07:48:16;;;;;;;92.63;42.00;;;7.20;97.20;;;;;;5093198;28;20059;-69
2022/01/04 07:50:41;;;;;;;102.67;45.10;;;7.20;97.20;;;;;;5093123;28;20024;-70
2022/01/04 07:53:08;;;;;;;101.73;45.27;;;7.20;97.10;;;;;;5092784;28;20016;-70
2022/01/04 07:55:34;;;;;;;103.77;44.67;;;7.30;97.20;;;;;;5093186;28;20070;-70
2022/01/04 07:58:00;;;;;;;100.23;46.20;;;7.20;97.20;;;;;;5093176;28;20028;-70
2022/01/04 08:00:26;;;;;;;105.83;46.80;;;7.30;97.20;;;;;;5092968;28;20070;-69
2022/01/04 08:02:52;;;;;;;95.63;43.00;;;7.30;97.20;;;;;;5091536;28;20020;-69
2022/01/04 08:05:18;;;;;;;100.97;47.03;;;7.30;97.20;;;;;;5089991;28;20024;-70
2022/01/04 08:07:44;;;;;;;107.43;45.63;;;7.30;97.20;;;;;;5091105;28;20020;-73
2022/01/04 08:10:12;;;;;;;98.83;44.93;;;7.30;97.20;;;;;;5093208;28;20024;-69
2022/01/04 08:12:38;;;;;;;104.00;44.00;;;7.30;97.30;;;;;;5093235;28;20399;-69
2022/01/04 08:15:05;;;;;;;102.93;48.50;;;7.30;97.30;;;;;;5092835;28;20016;-69
2022/01/04 08:17:31;;;;;;;97.93;44.00;;;7.30;97.30;;;;;;5092888;28;20472;-69
2022/01/04 08:19:58;;;;;;;101.87;45.47;;;7.30;97.30;;;;;;5092957;28;20552;-69
2022/01/04 08:22:23;;;;;;;103.87;46.53;;;7.30;97.40;;;;;;5092773;28;20373;-72
2022/01/04 08:24:49;;;;;;;94.33;43.80;;;7.30;97.40;;;;;;5092814;28;20020;-71
2022/01/04 08:27:15;;;;;;;95.73;44.43;;;7.30;97.40;;;;;;5092717;28;20020;-71
2022/01/04 08:29:41;;;;;;;99.77;45.23;;;7.30;97.40;;;;;;5092596;28;20392;-72
2022/01/04 08:32:07;;;;;;;93.53;43.37;;;7.30;97.40;;;;;;5092731;28;20012;-73
2022/01/04 08:34:33;;;;;;;99.63;46.20;;;7.30;97.40;;;;;;5092519;28;20354;-78
2022/01/04 08:36:58;;;;;;;100.60;47.63;;;7.30;97.40;;;;;;5092829;28;20024;-78
2022/01/04 08:39:26;;;;;;;97.53;47.37;;;7.30;97.50;;;;;;5092953;28;20103;-71
2022/01/04 08:42:01;;;;;;;99.70;47.80;;;7.30;97.50;;;;;;5092916;28;20023;-71
2022/01/04 08:44:27;;;;;;;99.20;46.70;;;7.40;97.40;;;;;;5091621;28;20071;-72
2022/01/04 08:46:53;;;;;;;91.93;44.40;;;7.40;97.40;;;;;;5091569;28;20427;-71
2022/01/04 08:49:19;;;;;;;93.80;43.80;;;7.40;97.30;;;;;;5095954;28;20024;-70
2022/01/04 08:51:45;;;;;;;93.93;44.17;;;7.30;97.30;;;;;;5096548;28;20388;-70
2022/01/04 08:54:12;;;;;;;94.13;43.93;;;7.40;97.40;;;;;;5096540;28;20028;-70
2022/01/04 08:56:38;;;;;;;92.13;41.40;;;7.40;97.40;;;;;;5096456;28;20456;-71
2022/01/04 08:59:05;;;;;;;93.87;42.10;;;7.40;97.30;;;;;;5096312;28;20051;-71
2022/01/04 09:01:32;;;;;;;82.37;40.70;;;7.30;97.40;;;;;;5095923;28;20483;-71
2022/01/04 09:03:58;;;;;;;82.57;38.90;;;7.40;97.40;;;;;;5096168;28;20063;-71
2022/01/04 09:06:24;;;;;;;87.67;41.00;;;7.40;97.40;;;;;;5096378;28;20020;-71
2022/01/04 09:08:54;;;;;;;77.90;39.60;;;7.40;97.40;;;;;;5096264;28;20048;-71
2022/01/04 09:11:21;;;;;;;85.57;39.27;;;7.40;97.40;;;;;;5096284;28;20016;-71
2022/01/04 09:13:48;;;;;;;85.33;39.87;;;7.40;97.40;;;;;;5095879;28;20066;-71
2022/01/04 09:18:58;;;;;;;75.67;38.83;;;7.40;97.40;;;;;;5096308;28;20031;-71
2022/01/04 09:21:26;;;;;;;82.63;39.90;;;7.40;97.40;;;;;;5095989;28;20048;-71
2022/01/04 09:23:54;;;;;;;77.57;38.53;;;7.40;97.60;;;;;;5095886;28;20036;-71
2022/01/04 09:26:20;;;;;;;76.67;39.30;;;7.40;97.40;;;;;;5096127;28;20096;-71
2022/01/04 09:28:46;;;;;;;79.67;41.50;;;7.40;97.30;;;;;;5095890;28;20473;-71
2022/01/04 09:31:13;;;;;;;76.30;39.60;;;7.40;97.30;;;;;;5096056;28;20024;-71
2022/01/04 09:33:39;;;;;;;78.27;40.93;;;7.40;97.30;;;;;;5095532;28;20472;-71
2022/01/04 09:36:06;;;;;;;83.17;41.10;;;7.40;97.30;;;;;;5095915;28;20027;-71
2022/01/04 09:38:32;;;;;;;73.93;38.13;;;7.40;97.30;;;;;;5095688;28;20028;-71
2022/01/04 09:40:58;;;;;;;79.00;39.47;;;7.40;97.30;;;;;;5111241;28;20115;-71
2022/01/04 09:43:24;;;;;;;79.43;39.80;;;7.40;97.30;;;;;;5095329;28;20447;-70
2022/01/04 09:45:51;;;;;;;72.67;38.17;;;7.40;97.30;;;;;;5095495;28;20024;-71
2022/01/04 09:48:19;;;;;;;80.73;40.33;;;7.40;97.40;;;;;;5095902;28;20024;-71
2022/01/04 09:50:45;;;;;;;95.23;48.37;;;7.40;97.40;;;;;;5095478;28;20476;-71
2022/01/04 09:53:19;;;;;;;91.00;45.07;;;7.50;97.30;;;;;;5095363;28;20035;-71
2022/01/04 09:55:49;;;;;;;94.53;47.97;;;7.50;97.30;;;;;;5095330;28;20020;-71
2022/01/04 09:58:16;;;;;;;74.33;39.63;;;7.50;97.30;;;;;;5095254;28;20035;-70
2022/01/04 10:00:42;;;;;;;87.03;43.57;;;7.50;97.20;;;;;;5094534;28;20021;-71
2022/01/04 10:03:17;;;;;;;88.80;43.00;;;7.50;97.30;;;;;;5095021;28;20028;-71
2022/01/04 10:05:44;;;;;;;79.13;39.20;;;7.50;97.30;;;;;;5093648;28;20028;-70
2022/01/04 10:08:11;;;;;;;81.07;41.53;;;7.50;97.30;;;;;;5095093;28;20436;-71
2022/01/04 10:10:38;;;;;;;75.60;41.10;;;7.50;97.40;;;;;;5095161;28;20027;-71
2022/01/04 10:13:11;;;;;;;76.67;40.03;;;7.50;97.40;;;;;;5094983;28;20046;-71
2022/01/04 10:15:42;;;;;;;76.53;38.97;;;7.50;97.30;;;;;;5094989;28;20020;-71
2022/01/04 10:18:14;;;;;;;71.83;38.03;;;7.50;97.30;;;;;;5095001;28;20403;-71
2022/01/04 10:20:39;;;;;;;74.83;38.63;;;7.50;97.30;;;;;;5094557;28;20094;-71
2022/01/04 10:23:10;;;;;;;98.73;51.37;;;7.50;97.60;;;;;;5094686;28;20111;-71
2022/01/04 10:25:36;;;;;;;112.53;57.23;;;7.50;97.30;;;;;;5094230;28;20459;-71
2022/01/04 10:28:02;;;;;;;91.33;46.97;;;7.50;97.30;;;;;;5094682;28;20028;-71
2022/01/04 10:30:39;;;;;;;97.77;52.43;;;7.50;97.40;;;;;;5094349;28;20020;-71
2022/01/04 10:33:10;;;;;;;86.37;45.27;;;7.40;97.50;;;;;;5094584;28;20110;-71
2022/01/04 10:35:43;;;;;;;87.70;45.07;;;7.40;97.60;;;;;;5092642;28;20047;-70
2022/01/04 10:38:20;;;;;;;88.78;43.47;;;7.40;97.60;;;;;;5094049;28;20108;-70
2022/01/04 10:41:01;;;;;;;82.57;41.87;;;7.40;97.70;;;;;;5093692;28;20598;-71
2022/01/04 10:43:39;;;;;;;79.57;42.30;;;7.40;97.70;;;;;;5093725;28;20039;-70
2022/01/04 10:46:05;;;;;;;77.60;40.50;;;7.40;97.70;;;;;;5073715;28;20041;-70
2022/01/04 10:48:39;;;;;;;81.00;42.27;;;7.50;97.80;;;;;;5073567;28;20485;-71
2022/01/04 10:51:12;;;;;;;74.40;39.17;;;7.50;97.70;;;;;;5073266;28;20028;-70
2022/01/04 10:53:44;;;;;;;59.05;33.70;;;7.50;97.70;;;;;;5073506;28;20020;-70
2022/01/04 10:56:14;;;;;;;71.23;38.40;;;7.50;97.70;;;;;;5073612;28;20039;-70
2022/01/04 10:58:43;;;;;;;73.93;38.43;;;7.50;97.70;;;;;;5073674;28;20025;-71
2022/01/04 11:01:14;;;;;;;74.70;37.50;;;7.50;97.60;;;;;;5073621;28;20025;-70
2022/01/04 11:03:54;;;;;;;181.43;77.90;;;7.50;97.50;;;;;;5073016;28;20066;-71
2022/01/04 11:06:29;;;;;;;153.70;71.63;;;7.50;97.50;;;;;;5073052;28;20126;-70
2022/01/04 11:08:56;;;;;;;79.80;43.37;;;7.50;97.50;;;;;;5073323;28;20025;-71
2022/01/04 11:11:23;;;;;;;62.87;35.87;;;7.50;97.40;;;;;;5073326;28;20366;-72
2022/01/04 11:13:51;;;;;;;67.00;36.07;;;7.60;97.20;;;;;;5073100;28;20054;-71
2022/01/04 11:16:19;;;;;;;69.60;36.50;;;7.60;97.20;;;;;;5072813;28;20060;-70
2022/01/04 11:18:50;;;;;;;69.33;37.77;;;7.60;97.20;;;;;;5073101;28;20016;-70
2022/01/04 11:21:21;;;;;;;65.57;34.47;;;7.60;97.10;;;;;;5072031;28;20049;-70
2022/01/04 11:23:49;;;;;;;65.03;36.53;;;7.60;97.10;;;;;;5056058;28;20044;-71
2022/01/04 11:26:15;;;;;;;57.70;34.97;;;7.60;97.00;;;;;;5054391;28;20025;-70
2022/01/04 11:28:43;;;;;;;77.83;41.33;;;7.60;97.00;;;;;;5064248;28;20048;-73
2022/01/04 11:31:08;;;;;;;73.97;40.73;;;7.60;97.00;;;;;;5057391;28;20025;-71
2022/01/04 11:33:58;;;;;;;71.83;40.90;;;7.60;97.00;;;;;;5052727;28;20029;-71
2022/01/04 11:36:26;;;;;;;64.60;35.10;;;7.60;97.10;;;;;;5052845;28;20020;-70
2022/01/04 11:38:52;;;;;;;63.57;34.80;;;7.60;97.00;;;;;;5052404;28;20029;-70
2022/01/04 11:41:24;;;;;;;64.33;35.93;;;7.60;97.00;;;;;;5052354;28;20029;-70
2022/01/04 11:43:51;;;;;;;71.68;38.45;;;7.60;97.00;;;;;;5052318;28;20110;-71
2022/01/04 11:46:35;;;;;;;69.87;37.17;;;7.60;97.00;;;;;;5051656;28;20381;-71
2022/01/04 11:49:13;;;;;;;62.33;35.77;;;7.60;97.00;;;;;;5052890;28;20031;-71
2022/01/04 11:51:43;;;;;;;77.33;39.63;;;7.60;97.00;;;;;;5052834;28;20474;-71
2022/01/04 11:54:30;;;;;;;71.73;37.47;;;7.60;97.00;;;;;;5052857;28;20028;-71
2022/01/04 11:57:08;;;;;;;69.73;37.33;;;7.60;96.90;;;;;;5053338;28;20036;-71
2022/01/04 11:59:36;;;;;;;71.10;38.33;;;7.60;96.90;;;;;;5052893;28;20029;-70
2022/01/04 12:02:28;;;;;;;72.67;37.23;;;7.60;96.90;;;;;;5052841;28;20392;-71
2022/01/04 12:05:10;;;;;;;68.27;35.47;;;7.60;96.90;;;;;;5052736;28;20079;-71
2022/01/04 12:07:49;;;;;;;68.73;36.93;;;7.60;96.90;;;;;;5052624;28;20017;-70
2022/01/04 12:10:20;;;;;;;68.80;35.23;;;7.60;96.80;;;;;;5052695;28;20025;-71
2022/01/04 12:13:01;;;;;;;69.70;36.20;;;7.60;97.20;;;;;;5052755;28;20040;-70
2022/01/04 12:15:52;;;;;;;75.57;38.97;;;7.60;97.00;;;;;;5052591;28;20027;-70
2022/01/04 12:18:24;;;;;;;83.27;39.70;;;7.60;96.90;;;;;;5047813;28;20069;-71
2022/01/04 12:20:52;;;;;;;72.67;37.33;;;7.60;96.90;;;;;;5052346;28;20049;-71
2022/01/04 12:23:26;;;;;;;74.83;37.97;;;7.60;97.00;;;;;;5053567;28;20028;-71
2022/01/04 12:26:08;;;;;;;70.70;36.73;;;7.60;97.00;;;;;;5056319;28;20025;-70
2022/01/04 12:28:59;;;;;;;75.90;36.13;;;7.60;96.90;;;;;;5056659;28;20041;-71
2022/01/04 12:31:28;;;;;;;77.37;38.00;;;7.60;96.90;;;;;;5056770;28;20074;-71
2022/01/04 12:34:06;;;;;;;75.70;38.67;;;7.60;96.90;;;;;;5056789;28;20111;-71
2022/01/04 12:36:45;;;;;;;70.30;36.43;;;7.60;96.90;;;;;;5056379;28;20512;-71
2022/01/04 12:39:16;;;;;;;69.40;36.83;;;7.60;96.90;;;;;;5071967;28;20381;-70
2022/01/04 12:41:44;;;;;;;68.90;35.33;;;7.60;96.90;;;;;;5056435;28;20033;-71
2022/01/04 12:44:12;;;;;;;72.43;36.90;;;7.60;97.10;;;;;;5056118;28;20447;-71
2022/01/04 12:46:42;;;;;;;68.77;36.13;;;7.60;96.80;;;;;;5056451;28;20036;-71